createdAt,value
2017-09-03T00:01:29.903Z,2.63
2017-09-03T00:03:57.364Z,2.63
2017-09-03T00:06:24.844Z,2.50
2017-09-03T00:08:52.304Z,2.20
2017-09-03T00:11:19.779Z,2.30
2017-09-03T00:13:47.237Z,2.50
2017-09-03T00:16:14.697Z,2.77
2017-09-03T00:18:42.171Z,3.00
2017-09-03T00:21:10.039Z,2.60
2017-09-03T00:23:37.506Z,2.60
2017-09-03T00:26:06.582Z,2.17
2017-09-03T00:28:34.051Z,2.80
2017-09-03T00:31:01.519Z,2.70
2017-09-03T00:33:28.987Z,2.30
2017-09-03T00:35:56.446Z,2.60
2017-09-03T00:38:23.923Z,2.90
2017-09-03T00:40:51.380Z,2.67
2017-09-03T00:43:18.846Z,2.77
2017-09-03T00:45:46.307Z,2.30
2017-09-03T00:48:13.774Z,2.37
2017-09-03T00:50:41.240Z,2.50
2017-09-03T00:53:08.690Z,2.70
2017-09-03T00:55:36.150Z,2.30
2017-09-03T00:58:04.384Z,2.20
2017-09-03T01:00:31.851Z,2.47
2017-09-03T01:02:59.307Z,2.20
2017-09-03T01:05:26.783Z,2.90
2017-09-03T01:07:54.244Z,2.60
2017-09-03T01:10:21.712Z,2.83
2017-09-03T01:12:49.166Z,3.10
2017-09-03T01:15:16.640Z,2.57
2017-09-03T01:17:44.102Z,2.43
2017-09-03T01:20:11.582Z,2.40
2017-09-03T01:22:39.043Z,2.10
2017-09-03T01:25:06.510Z,2.10
2017-09-03T01:27:33.971Z,2.70
2017-09-03T01:30:01.441Z,3.00
2017-09-03T01:32:28.912Z,2.87
2017-09-03T01:34:56.358Z,2.33
2017-09-03T01:37:23.829Z,2.10
2017-09-03T01:39:51.286Z,2.53
2017-09-03T01:42:18.749Z,2.60
2017-09-03T01:44:46.203Z,2.33
2017-09-03T01:47:13.676Z,2.10
2017-09-03T01:49:41.131Z,2.23
2017-09-03T01:52:08.593Z,2.40
2017-09-03T01:54:36.055Z,2.43
2017-09-03T01:57:03.527Z,2.67
2017-09-03T01:59:31.008Z,2.60
2017-09-03T02:01:58.478Z,1.80
2017-09-03T02:04:25.947Z,2.00
2017-09-03T02:06:53.418Z,2.13
2017-09-03T02:09:20.893Z,2.40
2017-09-03T02:11:48.358Z,2.50
2017-09-03T02:14:16.587Z,2.30
2017-09-03T02:16:44.056Z,2.50
2017-09-03T02:19:11.518Z,2.50
2017-09-03T02:21:38.984Z,2.87
2017-09-03T02:24:06.469Z,2.87
2017-09-03T02:26:33.933Z,2.80
2017-09-03T02:29:01.411Z,2.80
2017-09-03T02:31:28.869Z,2.13
2017-09-03T02:33:56.339Z,2.57
2017-09-03T02:36:23.796Z,2.30
2017-09-03T02:38:51.268Z,2.17
2017-09-03T02:41:18.720Z,2.43
2017-09-03T02:43:46.186Z,2.37
2017-09-03T02:46:13.654Z,2.10
2017-09-03T02:48:41.120Z,2.30
2017-09-03T02:51:08.598Z,2.97
2017-09-03T02:53:36.081Z,2.63
2017-09-03T02:56:03.546Z,2.80
2017-09-03T02:58:34.225Z,2.70
2017-09-03T03:01:01.687Z,2.23
2017-09-03T03:03:29.160Z,2.30
2017-09-03T03:05:56.981Z,3.10
2017-09-03T03:08:24.449Z,2.37
2017-09-03T03:10:51.910Z,2.70
2017-09-03T03:13:19.389Z,2.73
2017-09-03T03:15:46.851Z,2.30
2017-09-03T03:18:14.319Z,3.00
2017-09-03T03:20:41.784Z,2.50
2017-09-03T03:23:09.252Z,2.07
2017-09-03T03:25:36.732Z,2.37
2017-09-03T03:28:04.191Z,2.30
2017-09-03T03:30:31.664Z,2.13
2017-09-03T03:32:59.122Z,2.70
2017-09-03T03:35:26.595Z,3.00
2017-09-03T03:37:54.055Z,2.73
2017-09-03T03:40:21.523Z,2.73
2017-09-03T03:42:48.986Z,2.13
2017-09-03T03:45:16.463Z,2.23
2017-09-03T03:47:43.918Z,3.00
2017-09-03T03:50:11.383Z,2.40
2017-09-03T03:52:38.839Z,2.93
2017-09-03T03:55:06.312Z,3.30
2017-09-03T03:57:33.772Z,2.80
2017-09-03T04:00:01.245Z,2.53
2017-09-03T04:02:28.733Z,2.50
2017-09-03T04:04:56.194Z,3.03
2017-09-03T04:07:23.652Z,3.33
2017-09-03T04:09:51.120Z,2.53
2017-09-03T04:12:18.583Z,2.37
2017-09-03T04:14:46.030Z,3.17
2017-09-03T04:17:13.500Z,3.13
2017-09-03T04:19:40.962Z,2.73
2017-09-03T04:22:08.422Z,2.90
2017-09-03T04:24:35.878Z,2.80
2017-09-03T04:27:03.348Z,3.33
2017-09-03T04:29:30.806Z,2.60
2017-09-03T04:31:58.272Z,2.60
2017-09-03T04:34:25.723Z,2.40
2017-09-03T04:36:53.187Z,2.67
2017-09-03T04:39:20.642Z,2.97
2017-09-03T04:41:48.112Z,2.70
2017-09-03T04:44:15.562Z,3.10
2017-09-03T04:46:43.028Z,2.77
2017-09-03T04:49:10.487Z,2.43
2017-09-03T04:51:38.724Z,3.00
2017-09-03T04:54:06.192Z,2.73
2017-09-03T04:56:33.650Z,2.77
2017-09-03T04:59:01.116Z,2.53
2017-09-03T05:01:28.566Z,2.40
2017-09-03T05:03:56.032Z,2.60
2017-09-03T05:06:23.485Z,2.77
2017-09-03T05:08:50.951Z,3.43
2017-09-03T05:11:18.403Z,2.50
2017-09-03T05:13:45.862Z,2.80
2017-09-03T05:16:13.319Z,3.43
2017-09-03T05:18:40.810Z,3.37
2017-09-03T05:21:08.241Z,3.50
2017-09-03T05:23:35.711Z,3.20
2017-09-03T05:26:03.167Z,3.67
2017-09-03T05:28:31.168Z,4.00
2017-09-03T05:30:58.623Z,3.17
2017-09-03T05:33:26.088Z,3.03
2017-09-03T05:35:53.548Z,3.57
2017-09-03T05:38:21.022Z,3.53
2017-09-03T05:40:48.471Z,3.20
2017-09-03T05:43:15.942Z,3.27
2017-09-03T05:45:43.399Z,3.20
2017-09-03T05:48:10.871Z,3.00
2017-09-03T05:50:38.352Z,3.17
2017-09-03T05:53:05.802Z,3.30
2017-09-03T05:55:33.267Z,3.33
2017-09-03T05:58:00.731Z,3.37
2017-09-03T06:00:28.496Z,3.77
2017-09-03T06:02:55.955Z,4.40
2017-09-03T06:05:23.419Z,3.73
2017-09-03T06:07:50.885Z,3.53
2017-09-03T06:10:18.354Z,3.10
2017-09-03T06:12:46.127Z,3.10
2017-09-03T06:15:13.591Z,3.63
2017-09-03T06:17:41.059Z,4.40
2017-09-03T06:20:08.528Z,3.63
2017-09-03T06:22:35.983Z,3.83
2017-09-03T06:25:03.452Z,3.43
2017-09-03T06:27:30.915Z,4.03
2017-09-03T06:29:58.396Z,5.17
2017-09-03T06:32:25.851Z,5.57
2017-09-03T06:34:53.320Z,5.13
2017-09-03T06:37:21.547Z,4.70
2017-09-03T06:39:49.012Z,5.23
2017-09-03T06:42:16.489Z,4.70
2017-09-03T06:44:43.964Z,5.97
2017-09-03T06:47:11.423Z,5.07
2017-09-03T06:49:39.655Z,5.67
2017-09-03T06:52:07.115Z,6.43
2017-09-03T06:54:34.580Z,7.10
2017-09-03T06:57:02.045Z,7.90
2017-09-03T06:59:29.510Z,7.37
2017-09-03T07:01:56.968Z,9.10
2017-09-03T07:04:24.436Z,7.80
2017-09-03T07:06:51.902Z,9.13
2017-09-03T07:09:19.362Z,9.87
2017-09-03T07:11:46.839Z,10.37
2017-09-03T07:14:14.295Z,8.70
2017-09-03T07:16:41.763Z,9.13
2017-09-03T07:19:09.224Z,9.80
2017-09-03T07:21:36.704Z,8.40
2017-09-03T07:24:04.160Z,9.50
2017-09-03T07:26:31.634Z,8.33
2017-09-03T07:28:59.100Z,9.13
2017-09-03T07:31:26.563Z,9.37
2017-09-03T07:33:54.280Z,9.40
2017-09-03T07:36:21.749Z,10.80
2017-09-03T07:38:49.203Z,9.47
2017-09-03T07:41:16.666Z,9.80
2017-09-03T07:43:44.144Z,11.40
2017-09-03T07:46:11.611Z,12.60
2017-09-03T07:48:39.088Z,11.83
2017-09-03T07:51:06.550Z,11.77
2017-09-03T07:53:34.026Z,11.97
2017-09-03T07:56:01.496Z,11.17
2017-09-03T07:58:28.960Z,9.70
2017-09-03T08:00:56.427Z,9.70
2017-09-03T08:03:23.907Z,8.60
2017-09-03T08:05:51.377Z,10.40
2017-09-03T08:08:18.850Z,8.53
2017-09-03T08:10:46.319Z,10.40
2017-09-03T08:13:13.787Z,8.63
2017-09-03T08:15:41.251Z,10.40
2017-09-03T08:18:08.728Z,9.40
2017-09-03T08:20:36.195Z,10.30
2017-09-03T08:23:03.659Z,9.70
2017-09-03T08:25:31.127Z,9.60
2017-09-03T08:27:58.590Z,9.37
2017-09-03T08:30:26.060Z,8.83
2017-09-03T08:32:53.515Z,8.70
2017-09-03T08:35:20.991Z,9.27
2017-09-03T08:37:48.475Z,8.73
2017-09-03T08:40:15.931Z,7.03
2017-09-03T08:42:43.391Z,8.17
2017-09-03T08:45:10.869Z,8.53
2017-09-03T08:47:38.331Z,8.53
2017-09-03T08:50:05.812Z,8.03
2017-09-03T08:52:33.263Z,8.03
2017-09-03T08:55:00.731Z,4.87
2017-09-03T08:57:28.191Z,5.30
2017-09-03T08:59:55.658Z,5.37
2017-09-03T09:02:23.116Z,5.60
2017-09-03T09:04:50.583Z,5.50
2017-09-03T09:07:18.045Z,5.53
2017-09-03T09:09:45.515Z,5.90
2017-09-03T09:12:12.975Z,6.80
2017-09-03T09:14:41.204Z,4.70
2017-09-03T09:17:08.668Z,5.00
2017-09-03T09:19:36.137Z,4.77
2017-09-03T09:22:03.615Z,4.90
2017-09-03T09:24:31.080Z,4.80
2017-09-03T09:26:58.547Z,5.50
2017-09-03T09:29:25.999Z,4.70
2017-09-03T09:31:53.462Z,5.00
2017-09-03T09:34:21.690Z,5.10
2017-09-03T09:36:49.159Z,5.57
2017-09-03T09:39:16.621Z,6.30
2017-09-03T09:41:44.091Z,6.30
2017-09-03T09:44:11.547Z,5.63
2017-09-03T09:46:39.015Z,6.03
2017-09-03T09:49:06.476Z,4.73
2017-09-03T09:51:33.945Z,4.47
2017-09-03T09:54:02.167Z,4.10
2017-09-03T09:56:29.643Z,4.63
2017-09-03T09:58:57.111Z,5.20
2017-09-03T10:01:24.574Z,4.10
2017-09-03T10:03:52.038Z,3.33
2017-09-03T10:06:19.495Z,4.67
2017-09-03T10:08:53.413Z,4.40
2017-09-03T10:11:20.871Z,3.43
2017-09-03T10:13:48.348Z,4.13
2017-09-03T10:16:15.799Z,3.33
2017-09-03T10:18:43.266Z,2.70
2017-09-03T10:21:10.724Z,2.90
2017-09-03T10:23:38.190Z,2.97
2017-09-03T10:26:05.648Z,3.23
2017-09-03T10:28:33.147Z,2.63
2017-09-03T10:31:00.603Z,3.23
2017-09-03T10:33:28.071Z,2.50
2017-09-03T10:35:55.548Z,2.00
2017-09-03T10:38:23.015Z,2.70
2017-09-03T10:40:50.473Z,3.00
2017-09-03T10:43:17.945Z,2.00
2017-09-03T10:45:46.162Z,2.53
2017-09-03T10:48:13.635Z,3.17
2017-09-03T10:50:41.092Z,2.30
2017-09-03T10:53:08.571Z,2.27
2017-09-03T10:55:36.034Z,2.63
2017-09-03T10:58:03.492Z,2.20
2017-09-03T11:00:30.958Z,2.10
2017-09-03T11:02:59.243Z,2.60
2017-09-03T11:05:26.714Z,2.17
2017-09-03T11:07:54.174Z,2.20
2017-09-03T11:10:21.651Z,2.40
2017-09-03T11:12:49.106Z,2.07
2017-09-03T11:15:16.574Z,2.33
2017-09-03T11:17:44.035Z,1.53
2017-09-03T11:20:11.503Z,1.73
2017-09-03T11:22:38.965Z,2.17
2017-09-03T11:25:06.434Z,3.43
2017-09-03T11:27:33.891Z,2.20
2017-09-03T11:30:01.358Z,2.83
2017-09-03T11:32:28.815Z,2.00
2017-09-03T11:34:56.287Z,1.70
2017-09-03T11:37:23.742Z,1.60
2017-09-03T11:39:51.215Z,2.03
2017-09-03T11:42:18.673Z,1.70
2017-09-03T11:44:46.142Z,1.80
2017-09-03T11:47:13.604Z,1.83
2017-09-03T11:49:41.075Z,2.03
2017-09-03T11:52:08.536Z,1.47
2017-09-03T11:54:36.020Z,1.83
2017-09-03T11:57:03.478Z,1.77
2017-09-03T11:59:30.934Z,1.70
2017-09-03T12:01:58.403Z,1.57
2017-09-03T12:04:25.854Z,1.57
2017-09-03T12:06:53.328Z,1.63
2017-09-03T12:09:20.791Z,1.13
2017-09-03T12:11:48.264Z,1.63
2017-09-03T12:14:15.740Z,1.80
2017-09-03T12:16:43.203Z,1.90
2017-09-03T12:19:10.663Z,2.20
2017-09-03T12:21:38.144Z,1.70
2017-09-03T12:24:05.609Z,1.80
2017-09-03T12:26:33.080Z,2.00
2017-09-03T12:29:00.539Z,2.13
2017-09-03T12:31:28.011Z,1.57
2017-09-03T12:33:55.471Z,1.87
2017-09-03T12:36:22.943Z,1.50
2017-09-03T12:38:50.403Z,1.53
2017-09-03T12:41:17.863Z,1.50
2017-09-03T12:43:45.337Z,1.40
2017-09-03T12:46:12.790Z,1.47
2017-09-03T12:48:40.992Z,1.40
2017-09-03T12:51:08.959Z,1.27
2017-09-03T12:53:38.363Z,1.83
2017-09-03T12:56:06.411Z,1.77
2017-09-03T12:58:33.944Z,2.10
2017-09-03T13:01:01.402Z,1.70
2017-09-03T13:03:28.875Z,1.40
2017-09-03T13:05:56.343Z,1.77
2017-09-03T13:08:23.851Z,1.70
2017-09-03T13:10:51.313Z,1.80
2017-09-03T13:13:18.790Z,1.80
2017-09-03T13:15:46.251Z,2.03
2017-09-03T13:18:13.718Z,1.83
2017-09-03T13:20:41.188Z,1.40
2017-09-03T13:23:08.666Z,1.90
2017-09-03T13:25:36.127Z,1.60
2017-09-03T13:28:03.595Z,1.30
2017-09-03T13:30:31.364Z,1.47
2017-09-03T13:32:58.828Z,1.60
2017-09-03T13:35:26.288Z,1.30
2017-09-03T13:37:53.759Z,1.17
2017-09-03T13:40:21.226Z,1.33
2017-09-03T13:42:48.696Z,1.27
2017-09-03T13:45:16.152Z,1.80
2017-09-03T13:47:43.615Z,1.90
2017-09-03T13:50:11.083Z,1.50
2017-09-03T13:52:38.551Z,1.50
2017-09-03T13:55:06.011Z,1.57
2017-09-03T13:57:33.475Z,1.57
2017-09-03T14:00:00.949Z,1.20
2017-09-03T14:02:28.428Z,1.40
2017-09-03T14:04:55.895Z,1.60
2017-09-03T14:07:23.360Z,1.37
2017-09-03T14:09:51.103Z,1.50
2017-09-03T14:12:18.558Z,1.20
2017-09-03T14:14:46.023Z,1.50
2017-09-03T14:17:13.479Z,1.70
2017-09-03T14:19:40.950Z,1.67
2017-09-03T14:22:08.424Z,1.50
2017-09-03T14:24:35.893Z,1.40
2017-09-03T14:27:03.356Z,1.30
2017-09-03T14:29:30.827Z,1.73
2017-09-03T14:31:58.288Z,1.60
2017-09-03T14:34:25.754Z,1.80
2017-09-03T14:36:53.219Z,1.50
2017-09-03T14:39:20.683Z,1.37
2017-09-03T14:41:48.143Z,1.57
2017-09-03T14:44:15.612Z,1.83
2017-09-03T14:46:43.079Z,1.90
2017-09-03T14:49:10.538Z,2.43
2017-09-03T14:51:38.012Z,1.90
2017-09-03T14:54:05.459Z,1.73
2017-09-03T14:56:32.927Z,1.83
2017-09-03T14:59:00.383Z,1.73
2017-09-03T15:01:27.866Z,2.27
2017-09-03T15:03:55.324Z,1.70
2017-09-03T15:06:22.791Z,2.47
2017-09-03T15:08:54.069Z,2.00
2017-09-03T15:11:21.531Z,1.40
2017-09-03T15:13:48.996Z,2.20
2017-09-03T15:16:16.466Z,2.10
2017-09-03T15:18:43.922Z,1.77
2017-09-03T15:21:11.390Z,1.50
2017-09-03T15:23:38.862Z,1.50
2017-09-03T15:26:06.332Z,1.37
2017-09-03T15:28:33.799Z,1.73
2017-09-03T15:31:01.272Z,1.70
2017-09-03T15:33:28.753Z,1.83
2017-09-03T15:35:56.208Z,2.10
2017-09-03T15:38:23.674Z,1.80
2017-09-03T15:40:51.143Z,2.07
2017-09-03T15:43:18.611Z,1.80
2017-09-03T15:45:46.070Z,1.80
2017-09-03T15:48:13.544Z,1.90
2017-09-03T15:50:40.999Z,1.90
2017-09-03T15:53:08.468Z,1.33
2017-09-03T15:55:35.943Z,1.40
2017-09-03T15:58:03.416Z,1.70
2017-09-03T16:00:31.640Z,1.83
2017-09-03T16:02:59.215Z,1.90
2017-09-03T16:05:26.649Z,2.30
2017-09-03T16:07:54.512Z,2.10
2017-09-03T16:10:21.965Z,1.73
2017-09-03T16:12:49.435Z,2.20
2017-09-03T16:15:16.892Z,1.87
2017-09-03T16:17:44.355Z,1.80
2017-09-03T16:20:11.815Z,2.10
2017-09-03T16:22:39.287Z,1.63
2017-09-03T16:25:06.755Z,1.33
2017-09-03T16:27:34.224Z,1.80
2017-09-03T16:30:01.683Z,1.80
2017-09-03T16:32:29.135Z,2.47
2017-09-03T16:34:56.602Z,2.07
2017-09-03T16:37:24.067Z,1.90
2017-09-03T16:39:51.544Z,2.03
2017-09-03T16:42:19.015Z,2.00
2017-09-03T16:44:46.479Z,2.20
2017-09-03T16:47:13.946Z,2.10
2017-09-03T16:49:41.417Z,2.03
2017-09-03T16:52:08.889Z,1.90
2017-09-03T16:54:36.357Z,2.33
2017-09-03T16:57:03.826Z,2.33
2017-09-03T16:59:31.287Z,3.27
2017-09-03T17:01:58.753Z,3.27
2017-09-03T17:04:26.214Z,3.27
2017-09-03T17:06:53.673Z,2.47
2017-09-03T17:09:21.908Z,2.67
2017-09-03T17:11:49.365Z,2.27
2017-09-03T17:14:16.844Z,2.80
2017-09-03T17:16:44.299Z,2.20
2017-09-03T17:19:11.754Z,2.40
2017-09-03T17:21:39.223Z,2.03
2017-09-03T17:24:06.683Z,2.10
2017-09-03T17:26:34.163Z,1.87
2017-09-03T17:29:01.638Z,2.93
2017-09-03T17:31:30.515Z,2.50
2017-09-03T17:33:58.745Z,2.10
2017-09-03T17:36:27.150Z,2.20
2017-09-03T17:38:56.061Z,2.57
2017-09-03T17:41:34.341Z,2.57
2017-09-03T17:44:12.599Z,2.47
2017-09-03T17:49:42.106Z,2.60
2017-09-03T17:52:11.379Z,2.50
2017-09-03T17:54:38.844Z,3.40
2017-09-03T17:57:06.323Z,2.40
2017-09-03T17:59:33.787Z,2.47
2017-09-03T18:02:01.267Z,2.43
2017-09-03T18:04:43.607Z,2.40
2017-09-03T18:07:11.079Z,3.43
2017-09-03T18:09:38.534Z,2.83
2017-09-03T18:12:06.002Z,2.47
2017-09-03T18:14:33.466Z,2.90
2017-09-03T18:17:00.939Z,2.10
2017-09-03T18:19:28.398Z,2.93
2017-09-03T18:21:55.872Z,2.73
2017-09-03T18:24:23.343Z,2.30
2017-09-03T18:26:50.811Z,2.93
2017-09-03T18:29:18.280Z,2.70
2017-09-03T18:31:46.524Z,2.20
2017-09-03T18:34:14.003Z,2.40
2017-09-03T18:36:47.200Z,2.60
2017-09-03T18:39:17.108Z,2.67
2017-09-03T18:41:44.594Z,2.83
2017-09-03T18:47:04.807Z,2.60
2017-09-03T18:49:48.096Z,2.80
2017-09-03T18:52:19.479Z,2.57
2017-09-03T18:54:46.946Z,2.53
2017-09-03T18:57:14.415Z,2.30
2017-09-03T18:59:41.875Z,2.60
2017-09-03T19:02:09.353Z,3.13
2017-09-03T19:04:36.807Z,2.70
2017-09-03T19:07:04.279Z,2.73
2017-09-03T19:09:31.745Z,2.17
2017-09-03T19:11:59.231Z,2.50
2017-09-03T19:14:26.703Z,2.63
2017-09-03T19:16:54.171Z,2.17
2017-09-03T19:19:21.630Z,3.17
2017-09-03T19:21:49.099Z,2.97
2017-09-03T19:24:16.555Z,2.77
2017-09-03T19:26:44.035Z,3.13
2017-09-03T19:29:11.492Z,2.43
2017-09-03T19:31:38.968Z,2.30
2017-09-03T19:34:06.431Z,2.23
2017-09-03T19:36:33.887Z,3.10
2017-09-03T19:39:01.373Z,3.30
2017-09-03T19:41:28.835Z,2.90
2017-09-03T19:43:56.312Z,2.50
2017-09-03T19:46:23.772Z,3.30
2017-09-03T19:48:51.240Z,3.23
2017-09-03T19:51:18.710Z,3.00
2017-09-03T19:53:46.171Z,2.80
2017-09-03T19:56:13.633Z,3.10
2017-09-03T19:58:41.108Z,3.30
2017-09-03T20:01:08.578Z,2.90
2017-09-03T20:03:36.046Z,3.33
2017-09-03T20:06:03.527Z,3.20
2017-09-03T20:08:31.050Z,2.80
2017-09-03T20:10:58.531Z,3.27
2017-09-03T20:13:25.995Z,3.43
2017-09-03T20:15:53.457Z,3.53
2017-09-03T20:18:20.940Z,2.90
2017-09-03T20:20:48.403Z,2.90
2017-09-03T20:23:15.863Z,3.10
2017-09-03T20:25:43.337Z,2.70
2017-09-03T20:28:10.796Z,2.87
2017-09-03T20:30:39.036Z,2.90
2017-09-03T20:33:06.490Z,2.43
2017-09-03T20:35:33.958Z,2.50
2017-09-03T20:38:01.422Z,2.63
2017-09-03T20:40:28.891Z,3.93
2017-09-03T20:42:56.339Z,2.40
2017-09-03T20:45:23.807Z,2.40
2017-09-03T20:47:51.268Z,2.90
2017-09-03T20:50:18.737Z,2.90
2017-09-03T20:52:46.204Z,2.83
2017-09-03T20:55:13.675Z,3.37
2017-09-03T20:57:41.135Z,3.10
2017-09-03T21:00:08.600Z,3.27
2017-09-03T21:02:36.077Z,3.57
2017-09-03T21:05:03.563Z,2.83
2017-09-03T21:07:31.040Z,3.17
2017-09-03T21:09:58.496Z,2.80
2017-09-03T21:12:26.114Z,2.63
2017-09-03T21:14:53.641Z,2.80
2017-09-03T21:17:21.737Z,3.17
2017-09-03T21:19:49.263Z,2.50
2017-09-03T21:22:16.725Z,3.60
2017-09-03T21:24:44.468Z,2.77
2017-09-03T21:27:12.031Z,2.70
2017-09-03T21:29:39.487Z,2.57
2017-09-03T21:32:07.018Z,2.60
2017-09-03T21:34:34.871Z,2.90
2017-09-03T21:37:02.343Z,2.73
2017-09-03T21:39:29.799Z,2.80
2017-09-03T21:41:57.271Z,2.23
2017-09-03T21:44:24.731Z,3.27
2017-09-03T21:46:52.262Z,2.77
2017-09-03T21:49:19.732Z,2.87
2017-09-03T21:51:47.194Z,2.40
2017-09-03T21:54:15.068Z,3.30
2017-09-03T21:56:42.533Z,4.50
2017-09-03T21:59:09.991Z,3.23
2017-09-03T22:01:37.456Z,3.20
2017-09-03T22:04:04.931Z,2.97
2017-09-03T22:06:32.395Z,3.13
2017-09-03T22:08:59.862Z,2.40
2017-09-03T22:11:27.335Z,3.00
2017-09-03T22:13:54.799Z,3.37
2017-09-03T22:16:22.261Z,2.70
2017-09-03T22:18:49.727Z,2.83
2017-09-03T22:21:17.196Z,3.23
2017-09-03T22:23:44.663Z,3.10
2017-09-03T22:26:12.131Z,3.03
2017-09-03T22:28:39.610Z,2.80
2017-09-03T22:31:07.072Z,3.00
2017-09-03T22:33:34.538Z,2.90
2017-09-03T22:36:02.007Z,3.00
2017-09-03T22:38:29.473Z,3.00
2017-09-03T22:40:56.944Z,2.43
2017-09-03T22:43:24.398Z,2.73
2017-09-03T22:45:51.879Z,2.50
2017-09-03T22:48:19.355Z,3.10
2017-09-03T22:50:46.817Z,2.97
2017-09-03T22:53:15.051Z,2.90
2017-09-03T22:55:42.519Z,2.93
2017-09-03T22:58:09.980Z,3.13
2017-09-03T23:00:37.438Z,3.37
2017-09-03T23:03:04.900Z,3.80
2017-09-03T23:05:32.373Z,2.67
2017-09-03T23:07:59.837Z,2.50
2017-09-03T23:10:27.298Z,3.33
2017-09-03T23:12:54.757Z,2.87
2017-09-03T23:15:22.223Z,3.47
2017-09-03T23:17:49.674Z,3.43
2017-09-03T23:20:17.911Z,3.30
2017-09-03T23:22:45.374Z,3.50
2017-09-03T23:25:12.851Z,3.47
2017-09-03T23:27:40.311Z,3.30
2017-09-03T23:30:07.768Z,2.70
2017-09-03T23:32:35.230Z,2.83
2017-09-03T23:35:02.697Z,3.10
2017-09-03T23:37:30.163Z,3.37
2017-09-03T23:39:57.625Z,3.03
2017-09-03T23:42:25.856Z,2.97
2017-09-03T23:44:53.318Z,3.40
2017-09-03T23:47:20.782Z,2.70
2017-09-03T23:49:48.247Z,3.30
2017-09-03T23:52:15.723Z,2.70
2017-09-03T23:54:43.199Z,3.10
2017-09-03T23:57:10.671Z,2.70
2017-09-03T23:59:38.135Z,2.93
